createdAt,value
2022-10-05T00:02:22.642Z,12.72
2022-10-05T00:04:54.833Z,12.75
2022-10-05T00:07:24.736Z,12.75
2022-10-05T00:09:57.090Z,12.76
2022-10-05T00:12:29.118Z,12.75
2022-10-05T00:15:01.061Z,12.69
2022-10-05T00:17:31.237Z,12.68
2022-10-05T00:20:00.427Z,12.62
2022-10-05T00:22:32.803Z,12.54
2022-10-05T00:25:11.190Z,12.56
2022-10-05T00:27:40.526Z,12.62
2022-10-05T00:30:16.496Z,12.57
2022-10-05T00:32:46.372Z,12.43
2022-10-05T00:35:17.585Z,12.39
2022-10-05T00:37:52.539Z,12.39
2022-10-05T00:40:32.513Z,12.39
2022-10-05T00:43:21.880Z,12.42
2022-10-05T00:45:56.967Z,12.43
2022-10-05T00:48:36.693Z,12.42
2022-10-05T00:51:25.091Z,12.46
2022-10-05T00:54:07.541Z,12.48
2022-10-05T00:57:11.151Z,12.42
2022-10-05T00:59:51.643Z,12.34
2022-10-05T01:02:35.834Z,12.34
2022-10-05T01:05:12.722Z,12.37
2022-10-05T01:07:50.176Z,12.31
2022-10-05T01:10:29.248Z,12.11
2022-10-05T01:13:08.174Z,11.93
2022-10-05T01:15:45.878Z,11.85
2022-10-05T01:18:22.125Z,11.89
2022-10-05T01:21:03.119Z,11.91
2022-10-05T01:23:52.789Z,11.89
2022-10-05T01:26:45.566Z,11.91
2022-10-05T01:29:22.604Z,11.95
2022-10-05T01:31:58.474Z,12.00
2022-10-05T01:34:36.324Z,12.04
2022-10-05T01:37:15.353Z,12.01
2022-10-05T01:39:47.428Z,11.92
2022-10-05T01:42:28.554Z,11.89
2022-10-05T01:45:03.872Z,11.91
2022-10-05T01:47:42.441Z,11.93
2022-10-05T01:50:19.987Z,11.91
2022-10-05T01:53:00.328Z,11.84
2022-10-05T01:55:39.125Z,11.75
2022-10-05T01:58:15.427Z,11.66
2022-10-05T02:01:01.079Z,11.66
2022-10-05T02:03:35.857Z,11.70
2022-10-05T02:06:10.411Z,11.73
2022-10-05T02:08:44.006Z,11.76
2022-10-05T02:11:14.862Z,11.74
2022-10-05T02:13:47.766Z,11.69
2022-10-05T02:16:21.477Z,11.62
2022-10-05T02:18:54.899Z,11.49
2022-10-05T02:21:25.544Z,11.35
2022-10-05T02:23:57.594Z,11.26
2022-10-05T02:26:27.842Z,11.20
2022-10-05T02:29:01.514Z,11.21
2022-10-05T02:31:37.281Z,11.21
2022-10-05T02:34:27.062Z,11.10
2022-10-05T02:37:12.107Z,11.05
2022-10-05T02:39:57.862Z,10.94
2022-10-05T02:42:32.883Z,10.81
2022-10-05T02:45:14.300Z,10.66
2022-10-05T02:47:51.876Z,10.60
2022-10-05T02:50:29.802Z,10.59
2022-10-05T02:53:08.944Z,10.65
2022-10-05T02:55:46.601Z,10.72
2022-10-05T02:58:21.100Z,10.69
2022-10-05T03:00:59.906Z,10.60
2022-10-05T03:03:31.297Z,10.58
2022-10-05T03:06:03.113Z,10.56
2022-10-05T03:08:40.074Z,10.51
2022-10-05T03:11:18.225Z,10.46
2022-10-05T03:13:52.992Z,10.41
2022-10-05T03:16:35.173Z,10.33
2022-10-05T03:19:18.913Z,10.24
2022-10-05T03:21:58.942Z,10.19
2022-10-05T03:24:47.613Z,10.16
2022-10-05T03:27:23.017Z,10.20
2022-10-05T03:30:02.350Z,10.22
2022-10-05T03:32:41.253Z,10.24
2022-10-05T03:35:16.373Z,10.30
2022-10-05T03:37:51.571Z,10.38
2022-10-05T03:40:29.398Z,10.45
2022-10-05T03:43:26.949Z,10.43
2022-10-05T03:46:03.097Z,10.28
2022-10-05T03:48:40.201Z,10.13
2022-10-05T03:51:15.783Z,10.11
2022-10-05T03:53:50.969Z,10.11
2022-10-05T03:56:30.044Z,10.16
2022-10-05T03:59:00.956Z,10.20
2022-10-05T04:01:38.886Z,10.22
2022-10-05T04:04:18.937Z,10.23
2022-10-05T04:06:49.955Z,10.17
2022-10-05T04:09:24.095Z,10.04
2022-10-05T04:11:58.147Z,9.96
2022-10-05T04:14:32.689Z,9.96
2022-10-05T04:17:06.782Z,9.94
2022-10-05T04:19:43.678Z,10.03
2022-10-05T04:22:19.735Z,10.04
2022-10-05T04:24:56.197Z,10.04
2022-10-05T04:27:31.922Z,10.10
2022-10-05T04:30:07.676Z,10.16
2022-10-05T04:32:41.559Z,10.18
2022-10-05T04:35:26.462Z,10.14
2022-10-05T04:38:06.225Z,10.11
2022-10-05T04:40:48.579Z,10.11
2022-10-05T04:43:56.777Z,10.15
2022-10-05T04:51:16.143Z,10.27
2022-10-05T04:54:14.631Z,10.35
2022-10-05T04:57:35.450Z,10.38
2022-10-05T05:00:57.527Z,10.40
2022-10-05T05:04:28.343Z,10.45
2022-10-05T05:07:27.924Z,10.45
2022-10-05T05:10:21.729Z,10.40
2022-10-05T05:13:06.399Z,10.41
2022-10-05T05:15:48.596Z,10.48
2022-10-05T05:18:46.845Z,10.59
2022-10-05T05:21:30.558Z,10.70
2022-10-05T05:24:10.277Z,10.80
2022-10-05T05:27:01.809Z,10.90
2022-10-05T05:29:43.170Z,11.00
2022-10-05T05:32:23.248Z,11.12
2022-10-05T05:35:13.506Z,11.30
2022-10-05T05:37:54.207Z,11.47
2022-10-05T05:40:28.296Z,11.58
2022-10-05T05:43:02.392Z,11.66
2022-10-05T05:45:42.693Z,11.74
2022-10-05T05:48:19.009Z,11.81
2022-10-05T05:50:59.059Z,11.85
2022-10-05T05:53:41.584Z,11.94
2022-10-05T05:56:13.459Z,11.99
2022-10-05T05:58:49.076Z,12.03
2022-10-05T06:01:33.162Z,12.06
2022-10-05T06:04:10.986Z,12.07
2022-10-05T06:06:44.709Z,12.10
2022-10-05T06:09:21.061Z,12.13
2022-10-05T06:11:53.967Z,12.19
2022-10-05T06:14:29.673Z,12.23
2022-10-05T06:17:04.153Z,12.27
2022-10-05T06:19:36.703Z,12.31
2022-10-05T06:22:14.894Z,12.37
2022-10-05T06:24:58.063Z,12.41
2022-10-05T06:27:34.251Z,12.43
2022-10-05T06:30:10.030Z,12.47
2022-10-05T06:32:54.190Z,12.56
2022-10-05T06:35:35.824Z,12.62
2022-10-05T06:38:24.557Z,12.66
2022-10-05T06:41:02.796Z,12.67
2022-10-05T06:43:43.216Z,12.70
2022-10-05T06:46:19.137Z,12.75
2022-10-05T06:49:08.892Z,12.83
2022-10-05T06:51:45.251Z,12.88
2022-10-05T06:54:29.402Z,12.94
2022-10-05T06:57:05.205Z,13.04
2022-10-05T06:59:43.338Z,13.13
2022-10-05T07:02:22.266Z,13.23
2022-10-05T07:05:15.642Z,13.33
2022-10-05T07:07:54.163Z,13.44
2022-10-05T07:10:33.670Z,13.55
2022-10-05T07:13:22.224Z,13.65
2022-10-05T07:15:58.854Z,13.73
2022-10-05T07:18:53.412Z,13.83
2022-10-05T07:21:35.228Z,13.92
2022-10-05T07:24:22.209Z,14.00
2022-10-05T07:26:58.990Z,14.11
2022-10-05T07:29:33.302Z,14.19
2022-10-05T07:32:19.595Z,14.29
2022-10-05T07:35:00.017Z,14.38
2022-10-05T07:37:57.110Z,14.47
2022-10-05T07:40:32.834Z,14.57
2022-10-05T07:43:18.938Z,14.67
2022-10-05T07:45:55.446Z,14.75
2022-10-05T07:48:32.713Z,14.84
2022-10-05T07:51:16.020Z,14.91
2022-10-05T07:53:52.266Z,15.00
2022-10-05T07:56:25.692Z,15.07
2022-10-05T07:59:01.145Z,15.15
2022-10-05T08:01:34.370Z,15.24
2022-10-05T08:04:20.128Z,15.32
2022-10-05T08:06:56.690Z,15.40
2022-10-05T08:09:39.816Z,15.47
2022-10-05T08:12:31.389Z,15.53
2022-10-05T08:15:12.063Z,15.61
2022-10-05T08:17:47.910Z,15.67
2022-10-05T08:20:30.179Z,15.71
2022-10-05T08:23:23.879Z,15.76
2022-10-05T08:26:05.507Z,15.81
2022-10-05T08:28:39.407Z,15.85
2022-10-05T08:31:18.832Z,15.90
2022-10-05T08:33:58.238Z,15.95
2022-10-05T08:36:44.348Z,16.02
2022-10-05T08:39:18.184Z,16.06
2022-10-05T08:42:25.570Z,16.12
2022-10-05T08:45:46.410Z,16.20
2022-10-05T08:48:42.984Z,16.25
2022-10-05T08:51:45.297Z,16.31
2022-10-05T08:54:46.676Z,16.38
2022-10-05T08:57:52.911Z,16.44
2022-10-05T09:00:23.335Z,16.50
2022-10-05T09:03:19.287Z,16.54
2022-10-05T09:06:20.172Z,16.56
2022-10-05T09:09:07.961Z,16.58
2022-10-05T09:11:40.107Z,16.64
2022-10-05T09:14:52.445Z,16.69
2022-10-05T09:17:49.583Z,16.76
2022-10-05T09:20:30.248Z,16.80
2022-10-05T09:23:08.961Z,16.85
2022-10-05T09:25:56.314Z,16.89
2022-10-05T09:28:31.775Z,16.88
2022-10-05T09:31:18.897Z,16.92
2022-10-05T09:34:18.934Z,16.99
2022-10-05T09:37:24.813Z,17.06
2022-10-05T09:40:36.921Z,17.12
2022-10-05T09:43:32.242Z,17.18
2022-10-05T09:46:29.566Z,17.25
2022-10-05T09:49:15.427Z,17.33
2022-10-05T09:52:17.889Z,17.39
2022-10-05T09:55:27.101Z,17.42
2022-10-05T09:58:27.916Z,17.38
2022-10-05T10:01:36.385Z,17.22
2022-10-05T10:04:39.061Z,17.13
2022-10-05T10:07:39.721Z,17.11
2022-10-05T10:10:38.380Z,17.12
2022-10-05T10:13:32.553Z,17.15
2022-10-05T10:16:17.561Z,17.22
2022-10-05T10:19:17.516Z,17.29
2022-10-05T10:22:09.044Z,17.39
2022-10-05T10:24:52.192Z,17.48
2022-10-05T10:27:40.301Z,17.56
2022-10-05T10:30:37.454Z,17.63
2022-10-05T10:33:30.269Z,17.66
2022-10-05T10:36:06.989Z,17.68
2022-10-05T10:38:51.402Z,17.72
2022-10-05T10:42:01.019Z,17.80
2022-10-05T10:45:28.147Z,17.91
2022-10-05T10:48:04.823Z,17.98
2022-10-05T10:51:04.811Z,17.99
2022-10-05T10:54:07.883Z,18.03
2022-10-05T10:56:56.658Z,18.10
2022-10-05T11:00:00.292Z,18.16
2022-10-05T11:02:53.979Z,18.23
2022-10-05T11:05:36.273Z,18.27
2022-10-05T11:08:43.262Z,18.33
2022-10-05T11:11:28.905Z,18.41
2022-10-05T11:14:20.664Z,18.44
2022-10-05T11:17:23.995Z,18.47
2022-10-05T11:20:25.095Z,18.47
2022-10-05T11:23:03.431Z,18.41
2022-10-05T11:25:55.107Z,18.40
2022-10-05T11:29:06.202Z,18.42
2022-10-05T11:32:00.770Z,18.39
2022-10-05T11:34:48.601Z,18.36
2022-10-05T11:37:48.562Z,18.33
2022-10-05T11:40:51.749Z,18.31
2022-10-05T11:44:00.295Z,18.27
2022-10-05T11:46:41.741Z,18.27
2022-10-05T11:49:22.896Z,18.28
2022-10-05T11:52:06.240Z,18.31
2022-10-05T11:55:11.068Z,18.33
2022-10-05T11:57:48.605Z,18.35
2022-10-05T12:00:20.359Z,18.36
2022-10-05T12:03:15.061Z,18.34
2022-10-05T12:05:56.885Z,18.35
2022-10-05T12:08:34.681Z,18.40
2022-10-05T12:11:26.428Z,18.51
2022-10-05T12:14:01.835Z,18.70
2022-10-05T12:16:36.003Z,18.79
2022-10-05T12:19:13.578Z,18.80
2022-10-05T12:21:50.062Z,18.81
2022-10-05T12:24:27.044Z,18.75
2022-10-05T12:27:01.594Z,18.69
2022-10-05T12:29:38.568Z,18.68
2022-10-05T12:32:16.709Z,18.64
2022-10-05T12:34:52.885Z,18.59
2022-10-05T12:37:42.470Z,18.55
2022-10-05T12:40:28.117Z,18.53
2022-10-05T12:43:09.471Z,18.53
2022-10-05T12:45:53.295Z,18.52
2022-10-05T12:48:44.804Z,18.67
2022-10-05T12:51:19.888Z,18.86
2022-10-05T12:53:56.690Z,19.07
2022-10-05T12:56:36.777Z,19.26
2022-10-05T12:59:18.812Z,19.39
2022-10-05T13:01:57.618Z,19.39
2022-10-05T13:04:38.347Z,19.35
2022-10-05T13:07:26.943Z,19.33
2022-10-05T13:10:03.069Z,19.30
2022-10-05T13:12:43.412Z,19.34
2022-10-05T13:15:24.120Z,19.46
2022-10-05T13:18:04.275Z,19.56
2022-10-05T13:20:41.614Z,19.67
2022-10-05T13:23:16.993Z,19.80
2022-10-05T13:25:54.586Z,19.95
2022-10-05T13:28:30.140Z,20.10
2022-10-05T13:31:06.551Z,20.25
2022-10-05T13:34:01.513Z,20.47
2022-10-05T13:36:42.035Z,20.70
2022-10-05T13:39:26.944Z,21.01
2022-10-05T13:42:05.255Z,21.52
2022-10-05T13:44:42.874Z,21.66
2022-10-05T13:47:20.616Z,21.74
2022-10-05T13:49:54.969Z,21.71
2022-10-05T13:52:33.916Z,21.57
2022-10-05T13:55:14.434Z,21.55
2022-10-05T13:57:55.095Z,21.59
2022-10-05T14:00:27.103Z,21.62
2022-10-05T14:03:00.269Z,21.63
2022-10-05T14:05:31.067Z,21.68
2022-10-05T14:08:17.270Z,21.82
2022-10-05T14:10:47.745Z,21.87
2022-10-05T14:13:26.432Z,21.82
2022-10-05T14:16:20.975Z,21.89
2022-10-05T14:18:56.547Z,22.11
2022-10-05T14:21:28.826Z,22.23
2022-10-05T14:27:22.044Z,22.35
2022-10-05T14:30:00.090Z,22.24
2022-10-05T14:32:30.737Z,22.28
2022-10-05T14:35:14.601Z,22.33
2022-10-05T14:37:55.533Z,22.28
2022-10-05T14:40:36.108Z,22.17
2022-10-05T14:43:20.120Z,22.10
2022-10-05T14:45:57.426Z,22.07
2022-10-05T14:48:28.829Z,21.85
2022-10-05T14:51:02.885Z,21.57
2022-10-05T14:53:39.907Z,21.31
2022-10-05T14:56:34.386Z,21.11
2022-10-05T14:59:22.754Z,21.01
2022-10-05T15:01:58.601Z,20.86
2022-10-05T15:04:49.301Z,20.75
2022-10-05T15:07:24.523Z,20.55
2022-10-05T15:10:19.146Z,20.39
2022-10-05T15:12:48.667Z,20.28
2022-10-05T15:15:27.866Z,20.13
2022-10-05T15:18:01.369Z,19.98
2022-10-05T15:20:42.759Z,19.87
2022-10-05T15:23:24.436Z,19.80
2022-10-05T15:26:03.981Z,19.71
2022-10-05T15:28:38.277Z,19.61
2022-10-05T15:31:30.041Z,19.55
2022-10-05T15:34:06.911Z,19.48
2022-10-05T15:36:43.177Z,19.41
2022-10-05T15:39:26.911Z,19.32
2022-10-05T15:42:01.221Z,19.20
2022-10-05T15:45:05.041Z,19.10
2022-10-05T15:47:47.009Z,19.00
2022-10-05T15:50:22.830Z,18.90
2022-10-05T15:52:56.606Z,18.78
2022-10-05T15:55:51.067Z,18.69
2022-10-05T15:58:42.738Z,18.60
2022-10-05T16:01:17.327Z,18.55
2022-10-05T16:03:51.004Z,18.48
2022-10-05T16:07:09.223Z,18.43
2022-10-05T16:09:49.332Z,18.41
2022-10-05T16:12:35.425Z,18.38
2022-10-05T16:15:28.462Z,18.35
2022-10-05T16:18:36.722Z,18.27
2022-10-05T16:21:21.120Z,18.19
2022-10-05T16:24:10.129Z,18.13
2022-10-05T16:26:56.553Z,18.07
2022-10-05T16:29:39.565Z,18.03
2022-10-05T16:32:14.084Z,17.93
2022-10-05T16:34:57.514Z,17.84
2022-10-05T16:37:37.753Z,17.76
2022-10-05T16:40:18.418Z,17.69
2022-10-05T16:42:59.095Z,17.65
2022-10-05T16:45:51.042Z,17.62
2022-10-05T16:48:26.928Z,17.55
2022-10-05T16:51:16.910Z,17.47
2022-10-05T16:53:58.806Z,17.42
2022-10-05T16:56:37.582Z,17.39
2022-10-05T16:59:25.791Z,17.38
2022-10-05T17:02:02.237Z,17.29
2022-10-05T17:04:45.107Z,17.17
2022-10-05T17:07:34.473Z,17.08
2022-10-05T17:10:36.630Z,17.02
2022-10-05T17:13:19.643Z,16.98
2022-10-05T17:16:03.575Z,16.92
2022-10-05T17:19:10.790Z,16.90
2022-10-05T17:21:45.713Z,16.86
2022-10-05T17:24:24.751Z,16.82
2022-10-05T17:27:17.233Z,16.80
2022-10-05T17:29:51.385Z,16.71
2022-10-05T17:32:35.602Z,16.66
2022-10-05T17:35:21.721Z,16.59
2022-10-05T17:38:19.554Z,16.52
2022-10-05T17:41:16.658Z,16.48
2022-10-05T17:44:18.714Z,16.44
2022-10-05T17:46:49.671Z,16.40
2022-10-05T17:49:27.430Z,16.33
2022-10-05T17:52:40.870Z,16.28
2022-10-05T17:55:29.611Z,16.20
2022-10-05T17:58:00.825Z,16.16
2022-10-05T18:00:55.860Z,16.14
2022-10-05T18:03:38.255Z,16.13
2022-10-05T18:06:31.940Z,16.09
2022-10-05T18:09:32.613Z,16.02
2022-10-05T18:12:41.207Z,15.97
2022-10-05T18:15:48.048Z,15.93
2022-10-05T18:18:54.146Z,15.89
2022-10-05T18:21:37.898Z,15.86
2022-10-05T18:24:44.871Z,15.84
2022-10-05T18:27:33.646Z,15.81
2022-10-05T18:30:18.912Z,15.77
2022-10-05T18:33:25.212Z,15.72
2022-10-05T18:36:04.829Z,15.67
2022-10-05T18:38:52.458Z,15.66
2022-10-05T18:41:31.619Z,15.63
2022-10-05T18:44:19.041Z,15.63
2022-10-05T18:46:56.395Z,15.63
2022-10-05T18:49:38.708Z,15.63
2022-10-05T18:52:17.173Z,15.61
2022-10-05T18:54:54.223Z,15.60
2022-10-05T18:57:58.874Z,15.59
2022-10-05T19:00:42.783Z,15.59
2022-10-05T19:03:23.635Z,15.59
2022-10-05T19:06:02.889Z,15.58
2022-10-05T19:08:42.044Z,15.56
2022-10-05T19:11:19.089Z,15.55
2022-10-05T19:13:57.294Z,15.54
2022-10-05T19:16:40.997Z,15.54
2022-10-05T19:19:43.496Z,15.52
2022-10-05T19:22:29.418Z,15.51
2022-10-05T19:25:30.235Z,15.51
2022-10-05T19:28:19.054Z,15.49
2022-10-05T19:31:10.822Z,15.49
2022-10-05T19:34:02.710Z,15.46
2022-10-05T19:36:50.196Z,15.45
2022-10-05T19:39:31.986Z,15.43
2022-10-05T19:42:25.225Z,15.41
2022-10-05T19:45:19.375Z,15.40
2022-10-05T19:48:25.306Z,15.39
2022-10-05T19:51:11.567Z,15.36
2022-10-05T19:53:50.927Z,15.34
2022-10-05T19:56:31.607Z,15.32
2022-10-05T19:59:25.033Z,15.30
2022-10-05T20:02:10.873Z,15.28
2022-10-05T20:04:48.922Z,15.26
2022-10-05T20:07:26.459Z,15.24
2022-10-05T20:10:29.729Z,15.21
2022-10-05T20:13:09.472Z,15.18
2022-10-05T20:16:37.142Z,15.17
2022-10-05T20:22:47.922Z,15.16
2022-10-05T20:25:43.435Z,15.11
2022-10-05T20:28:37.187Z,15.09
2022-10-05T20:31:14.576Z,15.07
2022-10-05T20:33:48.711Z,15.05
2022-10-05T20:36:21.218Z,15.02
2022-10-05T20:38:57.796Z,15.02
2022-10-05T20:41:30.618Z,15.00
2022-10-05T20:44:04.413Z,14.99
2022-10-05T20:46:36.837Z,14.97
2022-10-05T20:49:11.369Z,14.94
2022-10-05T20:51:43.749Z,14.91
2022-10-05T20:54:19.220Z,14.88
2022-10-05T20:56:53.240Z,14.85
2022-10-05T20:59:27.431Z,14.82
2022-10-05T21:02:01.773Z,14.78
2022-10-05T21:04:41.289Z,14.76
2022-10-05T21:07:21.186Z,14.74
2022-10-05T21:09:56.017Z,14.71
2022-10-05T21:12:28.419Z,14.70
2022-10-05T21:15:01.726Z,14.67
2022-10-05T21:17:35.302Z,14.63
2022-10-05T21:20:11.789Z,14.60
2022-10-05T21:22:44.150Z,14.55
2022-10-05T21:25:16.627Z,14.53
2022-10-05T21:27:50.583Z,14.50
2022-10-05T21:30:23.045Z,14.47
2022-10-05T21:32:55.492Z,14.47
2022-10-05T21:35:27.980Z,14.45
2022-10-05T21:38:00.298Z,14.42
2022-10-05T21:40:33.166Z,14.40
2022-10-05T21:43:05.483Z,14.40
2022-10-05T21:45:38.525Z,14.38
2022-10-05T21:48:11.463Z,14.37
2022-10-05T21:50:44.598Z,14.36
2022-10-05T21:53:22.614Z,14.34
2022-10-05T21:55:57.687Z,14.33
2022-10-05T21:58:32.446Z,14.32
2022-10-05T22:01:05.087Z,14.30
2022-10-05T22:03:38.323Z,14.27
2022-10-05T22:06:11.399Z,14.26
2022-10-05T22:08:43.796Z,14.24
2022-10-05T22:11:18.662Z,14.23
2022-10-05T22:13:53.290Z,14.23
2022-10-05T22:16:27.182Z,14.22
2022-10-05T22:18:59.848Z,14.22
2022-10-05T22:21:38.135Z,14.24
2022-10-05T22:24:11.535Z,14.27
2022-10-05T22:26:46.768Z,14.27
2022-10-05T22:29:19.973Z,14.25
2022-10-05T22:31:56.350Z,14.23
2022-10-05T22:34:31.462Z,14.20
2022-10-05T22:37:04.661Z,14.17
2022-10-05T22:39:36.988Z,14.13
2022-10-05T22:42:10.273Z,14.08
2022-10-05T22:44:42.703Z,13.99
2022-10-05T22:47:15.227Z,13.89
2022-10-05T22:49:51.191Z,13.83
2022-10-05T22:52:23.768Z,13.77
2022-10-05T22:54:56.597Z,13.71
2022-10-05T22:57:29.436Z,13.69
2022-10-05T23:00:01.848Z,13.65
2022-10-05T23:02:36.948Z,13.63
2022-10-05T23:05:10.533Z,13.60
2022-10-05T23:07:45.008Z,13.56
2022-10-05T23:10:22.643Z,13.51
2022-10-05T23:13:03.879Z,13.46
2022-10-05T23:15:37.963Z,13.45
2022-10-05T23:18:10.818Z,13.44
2022-10-05T23:20:43.661Z,13.44
2022-10-05T23:23:16.042Z,13.47
2022-10-05T23:25:51.693Z,13.45
2022-10-05T23:28:24.921Z,13.42
2022-10-05T23:31:02.374Z,13.34
2022-10-05T23:33:35.313Z,13.29
2022-10-05T23:36:11.404Z,13.24
2022-10-05T23:38:43.897Z,13.20
2022-10-05T23:41:17.344Z,13.15
2022-10-05T23:43:50.077Z,13.15
2022-10-05T23:46:22.741Z,13.15
2022-10-05T23:48:55.186Z,13.20
2022-10-05T23:51:27.825Z,13.21
2022-10-05T23:54:00.300Z,13.22
2022-10-05T23:56:32.991Z,13.22
2022-10-05T23:59:05.597Z,13.14
